sensor_id;sensor_type;location;lat;lon;timestamp;P1;durP1;ratioP1;P2;durP2;ratioP2
24761;SDS011;12865;51.934;10.330;2022-12-18T00:02:36;10.90;;;7.90;;
24761;SDS011;12865;51.934;10.330;2022-12-18T00:05:22;11.82;;;6.85;;
24761;SDS011;12865;51.934;10.330;2022-12-18T00:08:08;10.23;;;6.80;;
24761;SDS011;12865;51.934;10.330;2022-12-18T00:10:54;12.45;;;6.70;;
24761;SDS011;12865;51.934;10.330;2022-12-18T00:13:39;7.82;;;5.03;;
24761;SDS011;12865;51.934;10.330;2022-12-18T00:16:26;8.70;;;5.15;;
24761;SDS011;12865;51.934;10.330;2022-12-18T00:19:13;13.50;;;7.68;;
24761;SDS011;12865;51.934;10.330;2022-12-18T00:21:59;8.10;;;4.60;;
24761;SDS011;12865;51.934;10.330;2022-12-18T00:24:45;10.68;;;5.65;;
24761;SDS011;12865;51.934;10.330;2022-12-18T00:27:31;8.70;;;6.05;;
24761;SDS011;12865;51.934;10.330;2022-12-18T00:30:16;8.90;;;5.85;;
24761;SDS011;12865;51.934;10.330;2022-12-18T00:33:02;9.43;;;5.72;;
24761;SDS011;12865;51.934;10.330;2022-12-18T00:35:48;9.48;;;5.50;;
24761;SDS011;12865;51.934;10.330;2022-12-18T00:38:33;7.20;;;5.38;;
24761;SDS011;12865;51.934;10.330;2022-12-18T00:41:20;9.63;;;5.22;;
24761;SDS011;12865;51.934;10.330;2022-12-18T00:44:24;7.53;;;4.38;;
24761;SDS011;12865;51.934;10.330;2022-12-18T00:47:10;5.53;;;4.20;;
24761;SDS011;12865;51.934;10.330;2022-12-18T00:49:55;7.63;;;4.82;;
24761;SDS011;12865;51.934;10.330;2022-12-18T00:52:41;6.97;;;4.22;;
24761;SDS011;12865;51.934;10.330;2022-12-18T00:55:27;6.57;;;4.40;;
24761;SDS011;12865;51.934;10.330;2022-12-18T00:58:14;8.27;;;5.38;;
24761;SDS011;12865;51.934;10.330;2022-12-18T01:01:00;9.00;;;5.55;;
24761;SDS011;12865;51.934;10.330;2022-12-18T01:03:46;10.88;;;6.22;;
24761;SDS011;12865;51.934;10.330;2022-12-18T01:06:32;12.75;;;7.05;;
24761;SDS011;12865;51.934;10.330;2022-12-18T01:09:18;11.25;;;6.32;;
24761;SDS011;12865;51.934;10.330;2022-12-18T01:12:03;12.88;;;6.78;;
24761;SDS011;12865;51.934;10.330;2022-12-18T01:14:49;14.52;;;6.55;;
24761;SDS011;12865;51.934;10.330;2022-12-18T01:17:35;12.75;;;5.93;;
24761;SDS011;12865;51.934;10.330;2022-12-18T01:20:21;12.05;;;5.60;;
24761;SDS011;12865;51.934;10.330;2022-12-18T01:23:06;12.35;;;6.60;;
24761;SDS011;12865;51.934;10.330;2022-12-18T01:25:52;15.20;;;7.30;;
24761;SDS011;12865;51.934;10.330;2022-12-18T01:28:38;15.43;;;7.57;;
24761;SDS011;12865;51.934;10.330;2022-12-18T01:31:25;10.75;;;5.55;;
24761;SDS011;12865;51.934;10.330;2022-12-18T01:34:13;12.10;;;6.38;;
24761;SDS011;12865;51.934;10.330;2022-12-18T01:36:59;12.30;;;6.15;;
24761;SDS011;12865;51.934;10.330;2022-12-18T01:39:48;13.38;;;7.10;;
24761;SDS011;12865;51.934;10.330;2022-12-18T01:42:35;8.32;;;5.15;;
24761;SDS011;12865;51.934;10.330;2022-12-18T01:45:25;9.50;;;4.57;;
24761;SDS011;12865;51.934;10.330;2022-12-18T01:48:12;9.85;;;4.78;;
24761;SDS011;12865;51.934;10.330;2022-12-18T01:50:58;7.47;;;4.15;;
24761;SDS011;12865;51.934;10.330;2022-12-18T01:53:45;8.30;;;4.22;;
24761;SDS011;12865;51.934;10.330;2022-12-18T01:56:32;5.90;;;3.83;;
24761;SDS011;12865;51.934;10.330;2022-12-18T01:59:18;7.05;;;4.65;;
24761;SDS011;12865;51.934;10.330;2022-12-18T02:02:04;12.52;;;7.22;;
24761;SDS011;12865;51.934;10.330;2022-12-18T02:04:49;8.80;;;5.55;;
24761;SDS011;12865;51.934;10.330;2022-12-18T02:07:43;12.38;;;5.90;;
24761;SDS011;12865;51.934;10.330;2022-12-18T02:10:38;8.52;;;5.00;;
24761;SDS011;12865;51.934;10.330;2022-12-18T02:32:20;6.47;;;3.90;;
24761;SDS011;12865;51.934;10.330;2022-12-18T02:35:13;7.55;;;4.20;;
24761;SDS011;12865;51.934;10.330;2022-12-18T02:38:03;7.15;;;4.25;;
24761;SDS011;12865;51.934;10.330;2022-12-18T02:40:49;8.43;;;4.05;;
24761;SDS011;12865;51.934;10.330;2022-12-18T02:43:36;8.50;;;4.07;;
24761;SDS011;12865;51.934;10.330;2022-12-18T02:59:04;13.18;;;4.85;;
24761;SDS011;12865;51.934;10.330;2022-12-18T03:01:56;10.50;;;4.85;;
24761;SDS011;12865;51.934;10.330;2022-12-18T03:05:05;10.85;;;4.38;;
24761;SDS011;12865;51.934;10.330;2022-12-18T03:07:58;9.35;;;4.10;;
24761;SDS011;12865;51.934;10.330;2022-12-18T03:10:54;8.05;;;4.30;;
24761;SDS011;12865;51.934;10.330;2022-12-18T03:13:46;8.77;;;4.88;;
24761;SDS011;12865;51.934;10.330;2022-12-18T03:16:37;8.82;;;4.93;;
24761;SDS011;12865;51.934;10.330;2022-12-18T03:19:25;8.55;;;3.83;;
24761;SDS011;12865;51.934;10.330;2022-12-18T03:22:13;6.85;;;4.30;;
24761;SDS011;12865;51.934;10.330;2022-12-18T03:25:02;8.27;;;3.85;;
24761;SDS011;12865;51.934;10.330;2022-12-18T03:27:54;7.07;;;4.38;;
24761;SDS011;12865;51.934;10.330;2022-12-18T03:30:44;8.57;;;3.83;;
24761;SDS011;12865;51.934;10.330;2022-12-18T03:33:45;7.32;;;3.67;;
24761;SDS011;12865;51.934;10.330;2022-12-18T03:36:32;9.43;;;3.10;;
24761;SDS011;12865;51.934;10.330;2022-12-18T03:39:18;7.28;;;3.45;;
24761;SDS011;12865;51.934;10.330;2022-12-18T03:42:05;5.32;;;3.35;;
24761;SDS011;12865;51.934;10.330;2022-12-18T03:45:00;5.22;;;3.03;;
24761;SDS011;12865;51.934;10.330;2022-12-18T03:48:18;6.07;;;2.70;;
24761;SDS011;12865;51.934;10.330;2022-12-18T03:51:14;4.05;;;3.05;;
24761;SDS011;12865;51.934;10.330;2022-12-18T03:54:08;3.40;;;2.38;;
24761;SDS011;12865;51.934;10.330;2022-12-18T03:57:07;5.55;;;2.95;;
24761;SDS011;12865;51.934;10.330;2022-12-18T04:00:11;4.95;;;3.13;;
24761;SDS011;12865;51.934;10.330;2022-12-18T04:02:59;3.67;;;3.08;;
24761;SDS011;12865;51.934;10.330;2022-12-18T04:05:47;4.53;;;3.17;;
24761;SDS011;12865;51.934;10.330;2022-12-18T04:08:36;5.28;;;3.58;;
24761;SDS011;12865;51.934;10.330;2022-12-18T04:11:23;5.30;;;3.75;;
24761;SDS011;12865;51.934;10.330;2022-12-18T04:14:09;3.95;;;3.65;;
24761;SDS011;12865;51.934;10.330;2022-12-18T04:16:55;4.43;;;3.35;;
24761;SDS011;12865;51.934;10.330;2022-12-18T04:19:41;5.07;;;3.70;;
24761;SDS011;12865;51.934;10.330;2022-12-18T04:22:27;4.93;;;3.35;;
24761;SDS011;12865;51.934;10.330;2022-12-18T04:25:12;4.82;;;3.80;;
24761;SDS011;12865;51.934;10.330;2022-12-18T04:27:58;5.35;;;4.35;;
24761;SDS011;12865;51.934;10.330;2022-12-18T04:30:44;5.32;;;3.72;;
24761;SDS011;12865;51.934;10.330;2022-12-18T04:33:29;5.28;;;3.80;;
24761;SDS011;12865;51.934;10.330;2022-12-18T04:36:15;4.53;;;3.58;;
24761;SDS011;12865;51.934;10.330;2022-12-18T04:39:01;4.57;;;3.70;;
24761;SDS011;12865;51.934;10.330;2022-12-18T04:41:46;5.43;;;3.80;;
24761;SDS011;12865;51.934;10.330;2022-12-18T04:44:32;7.13;;;3.30;;
24761;SDS011;12865;51.934;10.330;2022-12-18T04:47:18;5.15;;;3.70;;
24761;SDS011;12865;51.934;10.330;2022-12-18T04:50:04;5.18;;;4.10;;
24761;SDS011;12865;51.934;10.330;2022-12-18T04:52:50;6.25;;;4.30;;
24761;SDS011;12865;51.934;10.330;2022-12-18T04:55:36;5.25;;;4.25;;
24761;SDS011;12865;51.934;10.330;2022-12-18T04:58:21;7.63;;;4.93;;
24761;SDS011;12865;51.934;10.330;2022-12-18T05:01:07;7.05;;;4.78;;
24761;SDS011;12865;51.934;10.330;2022-12-18T05:03:54;7.32;;;5.00;;
24761;SDS011;12865;51.934;10.330;2022-12-18T05:06:41;6.72;;;4.65;;
24761;SDS011;12865;51.934;10.330;2022-12-18T05:09:26;6.55;;;4.25;;
24761;SDS011;12865;51.934;10.330;2022-12-18T05:12:12;6.47;;;4.82;;
24761;SDS011;12865;51.934;10.330;2022-12-18T05:14:58;6.63;;;4.70;;
24761;SDS011;12865;51.934;10.330;2022-12-18T05:17:43;7.00;;;4.68;;
24761;SDS011;12865;51.934;10.330;2022-12-18T05:20:30;12.23;;;6.75;;
24761;SDS011;12865;51.934;10.330;2022-12-18T05:23:16;13.43;;;8.30;;
24761;SDS011;12865;51.934;10.330;2022-12-18T05:26:03;13.68;;;8.10;;
24761;SDS011;12865;51.934;10.330;2022-12-18T05:28:51;14.17;;;9.30;;
24761;SDS011;12865;51.934;10.330;2022-12-18T05:31:36;14.10;;;8.98;;
24761;SDS011;12865;51.934;10.330;2022-12-18T05:34:22;12.65;;;7.03;;
24761;SDS011;12865;51.934;10.330;2022-12-18T05:37:07;8.32;;;4.47;;
24761;SDS011;12865;51.934;10.330;2022-12-18T05:42:21;10.60;;;5.88;;
24761;SDS011;12865;51.934;10.330;2022-12-18T05:45:07;13.57;;;9.32;;
24761;SDS011;12865;51.934;10.330;2022-12-18T05:47:52;11.35;;;8.75;;
24761;SDS011;12865;51.934;10.330;2022-12-18T05:50:39;7.45;;;5.88;;
24761;SDS011;12865;51.934;10.330;2022-12-18T05:53:26;9.48;;;6.25;;
24761;SDS011;12865;51.934;10.330;2022-12-18T05:56:16;9.48;;;5.43;;
24761;SDS011;12865;51.934;10.330;2022-12-18T05:59:03;6.55;;;4.95;;
24761;SDS011;12865;51.934;10.330;2022-12-18T06:01:49;7.07;;;4.80;;
24761;SDS011;12865;51.934;10.330;2022-12-18T06:04:34;7.25;;;4.05;;
24761;SDS011;12865;51.934;10.330;2022-12-18T06:07:20;5.28;;;3.40;;
24761;SDS011;12865;51.934;10.330;2022-12-18T06:10:06;4.60;;;3.50;;
24761;SDS011;12865;51.934;10.330;2022-12-18T06:12:52;6.30;;;3.45;;
24761;SDS011;12865;51.934;10.330;2022-12-18T06:15:37;5.97;;;3.38;;
24761;SDS011;12865;51.934;10.330;2022-12-18T06:18:23;4.35;;;3.13;;
24761;SDS011;12865;51.934;10.330;2022-12-18T06:21:09;5.55;;;3.20;;
24761;SDS011;12865;51.934;10.330;2022-12-18T06:23:54;4.85;;;3.03;;
24761;SDS011;12865;51.934;10.330;2022-12-18T06:26:40;5.03;;;3.17;;
24761;SDS011;12865;51.934;10.330;2022-12-18T06:29:26;5.70;;;3.40;;
24761;SDS011;12865;51.934;10.330;2022-12-18T06:32:12;3.63;;;2.33;;
24761;SDS011;12865;51.934;10.330;2022-12-18T06:34:57;2.72;;;2.08;;
24761;SDS011;12865;51.934;10.330;2022-12-18T06:37:43;4.57;;;2.03;;
24761;SDS011;12865;51.934;10.330;2022-12-18T06:40:29;5.82;;;2.45;;
24761;SDS011;12865;51.934;10.330;2022-12-18T06:43:14;4.20;;;2.78;;
24761;SDS011;12865;51.934;10.330;2022-12-18T06:46:00;4.82;;;2.55;;
24761;SDS011;12865;51.934;10.330;2022-12-18T06:48:47;3.80;;;3.40;;
24761;SDS011;12865;51.934;10.330;2022-12-18T06:51:34;7.30;;;5.22;;
24761;SDS011;12865;51.934;10.330;2022-12-18T06:54:20;5.45;;;4.43;;
24761;SDS011;12865;51.934;10.330;2022-12-18T06:57:05;5.72;;;3.67;;
24761;SDS011;12865;51.934;10.330;2022-12-18T06:59:51;5.47;;;3.17;;
24761;SDS011;12865;51.934;10.330;2022-12-18T07:02:37;4.93;;;3.30;;
24761;SDS011;12865;51.934;10.330;2022-12-18T07:05:22;5.43;;;3.38;;
24761;SDS011;12865;51.934;10.330;2022-12-18T07:08:08;5.05;;;3.42;;
24761;SDS011;12865;51.934;10.330;2022-12-18T07:10:53;6.18;;;4.32;;
24761;SDS011;12865;51.934;10.330;2022-12-18T07:13:39;7.05;;;4.97;;
24761;SDS011;12865;51.934;10.330;2022-12-18T07:16:25;10.50;;;5.60;;
24761;SDS011;12865;51.934;10.330;2022-12-18T07:19:11;10.00;;;6.35;;
24761;SDS011;12865;51.934;10.330;2022-12-18T07:21:57;10.27;;;5.75;;
24761;SDS011;12865;51.934;10.330;2022-12-18T07:24:43;9.05;;;5.65;;
24761;SDS011;12865;51.934;10.330;2022-12-18T07:27:28;5.45;;;3.85;;
24761;SDS011;12865;51.934;10.330;2022-12-18T07:30:14;6.10;;;4.05;;
24761;SDS011;12865;51.934;10.330;2022-12-18T07:33:00;5.80;;;4.05;;
24761;SDS011;12865;51.934;10.330;2022-12-18T07:35:45;5.05;;;4.05;;
24761;SDS011;12865;51.934;10.330;2022-12-18T07:38:32;6.47;;;4.60;;
24761;SDS011;12865;51.934;10.330;2022-12-18T07:41:18;9.55;;;5.88;;
24761;SDS011;12865;51.934;10.330;2022-12-18T07:44:04;15.75;;;10.25;;
24761;SDS011;12865;51.934;10.330;2022-12-18T07:46:50;10.88;;;9.73;;
24761;SDS011;12865;51.934;10.330;2022-12-18T07:49:35;14.93;;;10.15;;
24761;SDS011;12865;51.934;10.330;2022-12-18T07:52:21;7.90;;;6.15;;
24761;SDS011;12865;51.934;10.330;2022-12-18T07:55:07;8.85;;;7.53;;
24761;SDS011;12865;51.934;10.330;2022-12-18T07:57:53;10.05;;;8.95;;
24761;SDS011;12865;51.934;10.330;2022-12-18T08:00:39;13.82;;;11.68;;
24761;SDS011;12865;51.934;10.330;2022-12-18T08:03:24;13.07;;;11.68;;
24761;SDS011;12865;51.934;10.330;2022-12-18T08:06:10;16.45;;;14.02;;
24761;SDS011;12865;51.934;10.330;2022-12-18T08:08:56;18.55;;;14.43;;
24761;SDS011;12865;51.934;10.330;2022-12-18T08:11:42;16.25;;;13.88;;
24761;SDS011;12865;51.934;10.330;2022-12-18T08:14:28;15.85;;;14.23;;
24761;SDS011;12865;51.934;10.330;2022-12-18T08:17:13;17.42;;;15.70;;
24761;SDS011;12865;51.934;10.330;2022-12-18T08:19:59;16.75;;;14.95;;
24761;SDS011;12865;51.934;10.330;2022-12-18T08:22:45;18.33;;;16.55;;
24761;SDS011;12865;51.934;10.330;2022-12-18T08:25:30;16.58;;;14.88;;
24761;SDS011;12865;51.934;10.330;2022-12-18T08:28:16;17.75;;;15.95;;
24761;SDS011;12865;51.934;10.330;2022-12-18T08:31:02;17.17;;;15.38;;
24761;SDS011;12865;51.934;10.330;2022-12-18T08:33:48;16.23;;;14.48;;
24761;SDS011;12865;51.934;10.330;2022-12-18T08:36:35;14.88;;;13.27;;
24761;SDS011;12865;51.934;10.330;2022-12-18T08:39:21;16.83;;;14.55;;
24761;SDS011;12865;51.934;10.330;2022-12-18T08:42:06;17.98;;;14.05;;
24761;SDS011;12865;51.934;10.330;2022-12-18T08:45:11;14.35;;;12.85;;
24761;SDS011;12865;51.934;10.330;2022-12-18T08:47:56;19.40;;;12.82;;
24761;SDS011;12865;51.934;10.330;2022-12-18T08:50:42;15.63;;;12.82;;
24761;SDS011;12865;51.934;10.330;2022-12-18T08:53:27;43.58;;;30.80;;
24761;SDS011;12865;51.934;10.330;2022-12-18T08:56:14;34.88;;;25.85;;
24761;SDS011;12865;51.934;10.330;2022-12-18T08:59:00;40.30;;;28.10;;
24761;SDS011;12865;51.934;10.330;2022-12-18T09:01:46;37.20;;;27.83;;
24761;SDS011;12865;51.934;10.330;2022-12-18T09:04:33;30.50;;;22.67;;
24761;SDS011;12865;51.934;10.330;2022-12-18T09:07:18;30.33;;;22.20;;
24761;SDS011;12865;51.934;10.330;2022-12-18T09:10:04;25.20;;;20.20;;
24761;SDS011;12865;51.934;10.330;2022-12-18T09:12:50;26.98;;;20.17;;
24761;SDS011;12865;51.934;10.330;2022-12-18T09:15:40;27.77;;;22.23;;
24761;SDS011;12865;51.934;10.330;2022-12-18T09:18:30;29.95;;;23.90;;
24761;SDS011;12865;51.934;10.330;2022-12-18T09:21:18;24.98;;;20.52;;
24761;SDS011;12865;51.934;10.330;2022-12-18T09:24:05;21.85;;;17.48;;
24761;SDS011;12865;51.934;10.330;2022-12-18T09:26:54;22.83;;;18.05;;
24761;SDS011;12865;51.934;10.330;2022-12-18T09:29:40;20.98;;;18.30;;
24761;SDS011;12865;51.934;10.330;2022-12-18T09:32:26;22.65;;;16.42;;
24761;SDS011;12865;51.934;10.330;2022-12-18T09:35:11;23.20;;;16.67;;
24761;SDS011;12865;51.934;10.330;2022-12-18T09:37:57;20.63;;;16.33;;
24761;SDS011;12865;51.934;10.330;2022-12-18T09:40:49;18.27;;;14.23;;
24761;SDS011;12865;51.934;10.330;2022-12-18T09:47:05;19.40;;;13.77;;
24761;SDS011;12865;51.934;10.330;2022-12-18T09:49:58;31.75;;;22.85;;
24761;SDS011;12865;51.934;10.330;2022-12-18T09:52:48;37.88;;;24.17;;
24761;SDS011;12865;51.934;10.330;2022-12-18T09:55:42;41.47;;;27.27;;
24761;SDS011;12865;51.934;10.330;2022-12-18T09:58:31;53.97;;;31.38;;
24761;SDS011;12865;51.934;10.330;2022-12-18T10:01:31;44.42;;;27.40;;
24761;SDS011;12865;51.934;10.330;2022-12-18T10:04:17;40.08;;;26.05;;
24761;SDS011;12865;51.934;10.330;2022-12-18T10:07:07;38.08;;;23.98;;
24761;SDS011;12865;51.934;10.330;2022-12-18T10:10:07;37.35;;;23.13;;
24761;SDS011;12865;51.934;10.330;2022-12-18T10:13:08;32.58;;;21.73;;
24761;SDS011;12865;51.934;10.330;2022-12-18T10:16:16;31.15;;;21.52;;
24761;SDS011;12865;51.934;10.330;2022-12-18T10:28:13;14.23;;;12.05;;
24761;SDS011;12865;51.934;10.330;2022-12-18T10:31:00;13.10;;;9.82;;
24761;SDS011;12865;51.934;10.330;2022-12-18T10:33:46;13.38;;;8.70;;
24761;SDS011;12865;51.934;10.330;2022-12-18T10:36:32;10.63;;;7.70;;
24761;SDS011;12865;51.934;10.330;2022-12-18T10:39:22;13.80;;;9.45;;
24761;SDS011;12865;51.934;10.330;2022-12-18T10:42:15;10.95;;;8.57;;
24761;SDS011;12865;51.934;10.330;2022-12-18T10:45:08;21.40;;;13.23;;
24761;SDS011;12865;51.934;10.330;2022-12-18T10:48:01;18.35;;;13.73;;
24761;SDS011;12865;51.934;10.330;2022-12-18T10:50:47;25.08;;;18.35;;
24761;SDS011;12865;51.934;10.330;2022-12-18T10:53:37;32.13;;;19.20;;
24761;SDS011;12865;51.934;10.330;2022-12-18T10:56:23;32.65;;;19.77;;
24761;SDS011;12865;51.934;10.330;2022-12-18T10:59:12;27.63;;;18.38;;
24761;SDS011;12865;51.934;10.330;2022-12-18T11:02:00;18.13;;;12.23;;
24761;SDS011;12865;51.934;10.330;2022-12-18T11:04:50;23.55;;;14.60;;
24761;SDS011;12865;51.934;10.330;2022-12-18T11:07:46;26.52;;;19.02;;
24761;SDS011;12865;51.934;10.330;2022-12-18T11:10:37;19.95;;;13.57;;
24761;SDS011;12865;51.934;10.330;2022-12-18T11:13:26;18.88;;;13.30;;
24761;SDS011;12865;51.934;10.330;2022-12-18T11:16:20;15.50;;;10.68;;
24761;SDS011;12865;51.934;10.330;2022-12-18T11:22:23;20.95;;;15.02;;
24761;SDS011;12865;51.934;10.330;2022-12-18T11:31:24;8.70;;;6.40;;
24761;SDS011;12865;51.934;10.330;2022-12-18T11:34:15;8.73;;;6.65;;
24761;SDS011;12865;51.934;10.330;2022-12-18T11:37:03;16.05;;;14.35;;
24761;SDS011;12865;51.934;10.330;2022-12-18T11:39:50;9.10;;;6.32;;
24761;SDS011;12865;51.934;10.330;2022-12-18T11:49:06;8.68;;;5.28;;
24761;SDS011;12865;51.934;10.330;2022-12-18T11:58:07;6.25;;;3.80;;
24761;SDS011;12865;51.934;10.330;2022-12-18T12:14:32;6.30;;;5.45;;
24761;SDS011;12865;51.934;10.330;2022-12-18T12:22:59;6.25;;;5.43;;
24761;SDS011;12865;51.934;10.330;2022-12-18T12:25:59;8.25;;;5.75;;
24761;SDS011;12865;51.934;10.330;2022-12-18T12:35:02;12.13;;;8.27;;
24761;SDS011;12865;51.934;10.330;2022-12-18T12:38:28;12.07;;;8.82;;
24761;SDS011;12865;51.934;10.330;2022-12-18T12:41:23;13.35;;;9.63;;
24761;SDS011;12865;51.934;10.330;2022-12-18T12:44:44;14.68;;;9.50;;
24761;SDS011;12865;51.934;10.330;2022-12-18T12:47:38;12.55;;;8.20;;
24761;SDS011;12865;51.934;10.330;2022-12-18T12:50:27;12.82;;;8.57;;
24761;SDS011;12865;51.934;10.330;2022-12-18T12:53:16;15.68;;;9.10;;
24761;SDS011;12865;51.934;10.330;2022-12-18T12:56:18;13.95;;;10.25;;
24761;SDS011;12865;51.934;10.330;2022-12-18T12:59:10;13.52;;;10.00;;
24761;SDS011;12865;51.934;10.330;2022-12-18T13:02:05;17.70;;;12.60;;
24761;SDS011;12865;51.934;10.330;2022-12-18T13:05:16;17.83;;;15.25;;
24761;SDS011;12865;51.934;10.330;2022-12-18T13:08:12;16.48;;;12.23;;
24761;SDS011;12865;51.934;10.330;2022-12-18T13:11:14;19.75;;;12.80;;
24761;SDS011;12865;51.934;10.330;2022-12-18T13:14:52;19.05;;;13.10;;
24761;SDS011;12865;51.934;10.330;2022-12-18T13:17:38;17.27;;;11.35;;
24761;SDS011;12865;51.934;10.330;2022-12-18T13:20:23;17.23;;;11.30;;
24761;SDS011;12865;51.934;10.330;2022-12-18T13:23:40;21.55;;;13.98;;
24761;SDS011;12865;51.934;10.330;2022-12-18T13:29:11;71.40;;;30.67;;
24761;SDS011;12865;51.934;10.330;2022-12-18T13:32:00;24.10;;;14.27;;
24761;SDS011;12865;51.934;10.330;2022-12-18T13:34:46;17.80;;;12.15;;
24761;SDS011;12865;51.934;10.330;2022-12-18T13:41:00;19.20;;;13.43;;
24761;SDS011;12865;51.934;10.330;2022-12-18T13:43:41;23.92;;;14.30;;
24761;SDS011;12865;51.934;10.330;2022-12-18T13:46:44;19.15;;;13.57;;
24761;SDS011;12865;51.934;10.330;2022-12-18T13:49:36;20.88;;;16.42;;
24761;SDS011;12865;51.934;10.330;2022-12-18T13:52:25;18.92;;;13.27;;
24761;SDS011;12865;51.934;10.330;2022-12-18T13:55:16;23.75;;;14.75;;
24761;SDS011;12865;51.934;10.330;2022-12-18T13:58:04;21.25;;;15.85;;
24761;SDS011;12865;51.934;10.330;2022-12-18T14:00:51;22.48;;;16.60;;
24761;SDS011;12865;51.934;10.330;2022-12-18T14:03:37;46.88;;;30.25;;
24761;SDS011;12865;51.934;10.330;2022-12-18T14:06:22;21.23;;;15.90;;
24761;SDS011;12865;51.934;10.330;2022-12-18T14:09:10;104.10;;;50.20;;
24761;SDS011;12865;51.934;10.330;2022-12-18T14:11:59;24.80;;;17.55;;
24761;SDS011;12865;51.934;10.330;2022-12-18T14:15:05;24.92;;;17.88;;
24761;SDS011;12865;51.934;10.330;2022-12-18T14:21:03;22.90;;;16.13;;
24761;SDS011;12865;51.934;10.330;2022-12-18T14:24:02;18.98;;;13.80;;
24761;SDS011;12865;51.934;10.330;2022-12-18T14:27:19;16.30;;;12.07;;
24761;SDS011;12865;51.934;10.330;2022-12-18T14:30:23;21.83;;;16.30;;
24761;SDS011;12865;51.934;10.330;2022-12-18T14:33:11;17.55;;;13.30;;
24761;SDS011;12865;51.934;10.330;2022-12-18T14:38:58;17.75;;;12.23;;
24761;SDS011;12865;51.934;10.330;2022-12-18T14:41:44;12.80;;;9.07;;
24761;SDS011;12865;51.934;10.330;2022-12-18T14:44:30;17.48;;;12.00;;
24761;SDS011;12865;51.934;10.330;2022-12-18T14:47:16;18.13;;;12.32;;
24761;SDS011;12865;51.934;10.330;2022-12-18T14:50:02;20.92;;;13.18;;
24761;SDS011;12865;51.934;10.330;2022-12-18T14:52:49;18.88;;;13.50;;
24761;SDS011;12865;51.934;10.330;2022-12-18T14:55:35;20.02;;;14.50;;
24761;SDS011;12865;51.934;10.330;2022-12-18T14:58:20;19.45;;;13.65;;
24761;SDS011;12865;51.934;10.330;2022-12-18T15:01:07;15.95;;;11.85;;
24761;SDS011;12865;51.934;10.330;2022-12-18T15:03:53;16.40;;;12.73;;
24761;SDS011;12865;51.934;10.330;2022-12-18T15:06:40;19.20;;;13.07;;
24761;SDS011;12865;51.934;10.330;2022-12-18T15:09:26;21.52;;;14.73;;
24761;SDS011;12865;51.934;10.330;2022-12-18T15:18:40;32.17;;;24.60;;
24761;SDS011;12865;51.934;10.330;2022-12-18T15:21:27;26.00;;;17.38;;
24761;SDS011;12865;51.934;10.330;2022-12-18T15:24:17;38.05;;;23.45;;
24761;SDS011;12865;51.934;10.330;2022-12-18T15:27:17;24.83;;;17.20;;
24761;SDS011;12865;51.934;10.330;2022-12-18T15:33:16;24.13;;;17.30;;
24761;SDS011;12865;51.934;10.330;2022-12-18T15:36:09;41.40;;;27.95;;
24761;SDS011;12865;51.934;10.330;2022-12-18T15:38:56;30.90;;;19.52;;
24761;SDS011;12865;51.934;10.330;2022-12-18T15:41:42;42.67;;;27.15;;
24761;SDS011;12865;51.934;10.330;2022-12-18T15:44:48;69.85;;;62.40;;
24761;SDS011;12865;51.934;10.330;2022-12-18T15:47:34;39.47;;;26.30;;
24761;SDS011;12865;51.934;10.330;2022-12-18T15:50:20;37.08;;;23.15;;
24761;SDS011;12865;51.934;10.330;2022-12-18T15:53:07;38.10;;;26.35;;
24761;SDS011;12865;51.934;10.330;2022-12-18T15:55:54;47.33;;;30.05;;
24761;SDS011;12865;51.934;10.330;2022-12-18T15:58:58;46.55;;;31.98;;
24761;SDS011;12865;51.934;10.330;2022-12-18T16:01:44;41.15;;;27.23;;
24761;SDS011;12865;51.934;10.330;2022-12-18T16:04:33;49.40;;;30.90;;
24761;SDS011;12865;51.934;10.330;2022-12-18T16:07:18;49.50;;;32.58;;
24761;SDS011;12865;51.934;10.330;2022-12-18T16:10:04;44.58;;;28.45;;
24761;SDS011;12865;51.934;10.330;2022-12-18T16:12:50;55.65;;;31.90;;
24761;SDS011;12865;51.934;10.330;2022-12-18T16:15:36;46.15;;;30.10;;
24761;SDS011;12865;51.934;10.330;2022-12-18T16:18:22;47.28;;;30.88;;
24761;SDS011;12865;51.934;10.330;2022-12-18T16:21:08;43.42;;;27.85;;
24761;SDS011;12865;51.934;10.330;2022-12-18T16:23:54;59.22;;;38.53;;
24761;SDS011;12865;51.934;10.330;2022-12-18T16:26:39;46.60;;;29.80;;
24761;SDS011;12865;51.934;10.330;2022-12-18T16:29:27;51.38;;;34.25;;
24761;SDS011;12865;51.934;10.330;2022-12-18T16:32:15;59.17;;;39.72;;
24761;SDS011;12865;51.934;10.330;2022-12-18T16:35:04;54.55;;;37.10;;
24761;SDS011;12865;51.934;10.330;2022-12-18T16:37:50;54.95;;;36.42;;
24761;SDS011;12865;51.934;10.330;2022-12-18T16:40:36;52.55;;;36.58;;
24761;SDS011;12865;51.934;10.330;2022-12-18T16:43:43;46.33;;;33.28;;
24761;SDS011;12865;51.934;10.330;2022-12-18T16:46:28;51.03;;;33.47;;
24761;SDS011;12865;51.934;10.330;2022-12-18T16:49:15;80.00;;;46.75;;
24761;SDS011;12865;51.934;10.330;2022-12-18T16:52:03;53.97;;;36.20;;
24761;SDS011;12865;51.934;10.330;2022-12-18T16:54:49;46.40;;;32.67;;
24761;SDS011;12865;51.934;10.330;2022-12-18T16:57:35;45.17;;;29.92;;
24761;SDS011;12865;51.934;10.330;2022-12-18T17:00:20;64.05;;;43.08;;
24761;SDS011;12865;51.934;10.330;2022-12-18T17:03:06;61.22;;;41.72;;
24761;SDS011;12865;51.934;10.330;2022-12-18T17:05:52;55.05;;;37.03;;
24761;SDS011;12865;51.934;10.330;2022-12-18T17:08:37;61.80;;;43.20;;
24761;SDS011;12865;51.934;10.330;2022-12-18T17:11:23;50.30;;;32.05;;
24761;SDS011;12865;51.934;10.330;2022-12-18T17:14:15;39.53;;;26.42;;
24761;SDS011;12865;51.934;10.330;2022-12-18T17:17:03;33.10;;;24.08;;
24761;SDS011;12865;51.934;10.330;2022-12-18T17:19:49;45.05;;;31.80;;
24761;SDS011;12865;51.934;10.330;2022-12-18T17:22:36;44.15;;;32.58;;
24761;SDS011;12865;51.934;10.330;2022-12-18T17:25:21;54.47;;;44.03;;
24761;SDS011;12865;51.934;10.330;2022-12-18T17:28:07;48.00;;;33.08;;
24761;SDS011;12865;51.934;10.330;2022-12-18T17:30:53;89.25;;;79.80;;
24761;SDS011;12865;51.934;10.330;2022-12-18T17:33:39;38.25;;;27.70;;
24761;SDS011;12865;51.934;10.330;2022-12-18T17:36:25;40.17;;;27.45;;
24761;SDS011;12865;51.934;10.330;2022-12-18T17:39:16;47.97;;;31.88;;
24761;SDS011;12865;51.934;10.330;2022-12-18T17:44:31;38.03;;;28.30;;
24761;SDS011;12865;51.934;10.330;2022-12-18T17:47:18;39.20;;;27.75;;
24761;SDS011;12865;51.934;10.330;2022-12-18T17:50:04;36.00;;;25.52;;
24761;SDS011;12865;51.934;10.330;2022-12-18T17:52:54;38.78;;;24.85;;
24761;SDS011;12865;51.934;10.330;2022-12-18T17:55:40;36.08;;;25.05;;
24761;SDS011;12865;51.934;10.330;2022-12-18T17:58:29;39.17;;;26.42;;
24761;SDS011;12865;51.934;10.330;2022-12-18T18:01:15;36.08;;;25.85;;
24761;SDS011;12865;51.934;10.330;2022-12-18T18:04:03;27.63;;;19.57;;
24761;SDS011;12865;51.934;10.330;2022-12-18T18:06:49;35.53;;;25.02;;
24761;SDS011;12865;51.934;10.330;2022-12-18T18:09:35;37.88;;;26.27;;
24761;SDS011;12865;51.934;10.330;2022-12-18T18:12:20;48.70;;;34.00;;
24761;SDS011;12865;51.934;10.330;2022-12-18T18:15:24;45.45;;;31.75;;
24761;SDS011;12865;51.934;10.330;2022-12-18T18:18:10;53.58;;;37.95;;
24761;SDS011;12865;51.934;10.330;2022-12-18T18:20:56;37.33;;;27.42;;
24761;SDS011;12865;51.934;10.330;2022-12-18T18:23:41;34.13;;;25.90;;
24761;SDS011;12865;51.934;10.330;2022-12-18T18:26:27;36.65;;;24.88;;